Terminal Aerodrome Forecast
Issued by NWS

Home | Current Version | Previous Version | Text Only | Print | Product List | Glossary On
Versions: 1 2 3 4 5 6 7 8 9 10 11 12
183
FTUS46 KLOX 112349
TAFSBA
TAF
KSBA 112349Z 1200/1224 25007KT P6SM SCT250
     FM120200 VRB03KT 6SM BR VCFG SCT001 BKN250
      TEMPO 1205/1206 1/2SM FG VV001
     FM121800 17005KT P6SM BKN250
     FM122100 25008KT P6SM OVC200=

USA.gov is the U.S. government's official web portal to all federal, state and local government web resources and services.